createdAt,value
2023-04-23T00:00:51.037Z,14.83
2023-04-23T00:02:56.065Z,14.75
2023-04-23T00:05:06.100Z,14.82
2023-04-23T00:07:09.231Z,14.89
2023-04-23T00:09:15.818Z,14.82
2023-04-23T00:11:18.918Z,14.71
2023-04-23T00:13:21.767Z,14.81
2023-04-23T00:15:24.819Z,14.75
2023-04-23T00:17:27.489Z,14.75
2023-04-23T00:19:30.067Z,14.69
2023-04-23T00:21:32.688Z,14.71
2023-04-23T00:23:35.231Z,14.72
2023-04-23T00:25:39.160Z,14.71
2023-04-23T00:27:41.695Z,14.65
2023-04-23T00:29:46.266Z,14.73
2023-04-23T00:31:48.968Z,14.72
2023-04-23T00:33:51.630Z,14.81
2023-04-23T00:35:54.134Z,14.81
2023-04-23T00:37:56.743Z,14.67
2023-04-23T00:39:59.301Z,14.70
2023-04-23T00:42:10.353Z,14.85
2023-04-23T00:44:14.067Z,14.81
2023-04-23T00:46:18.124Z,15.07
2023-04-23T00:48:21.575Z,15.00
2023-04-23T00:50:24.262Z,14.80
2023-04-23T00:52:26.926Z,14.81
2023-04-23T00:54:29.502Z,14.79
2023-04-23T00:56:32.077Z,14.95
2023-04-23T00:58:36.273Z,14.99
2023-04-23T01:00:46.200Z,14.88
2023-04-23T01:02:50.493Z,15.00
2023-04-23T01:04:54.849Z,14.85
2023-04-23T01:06:58.833Z,14.90
2023-04-23T01:09:01.927Z,14.77
2023-04-23T01:11:04.799Z,14.73
2023-04-23T01:13:07.427Z,14.79
2023-04-23T01:15:11.993Z,14.72
2023-04-23T01:17:14.644Z,14.63
2023-04-23T01:19:17.253Z,14.65
2023-04-23T01:21:21.021Z,14.55
2023-04-23T01:23:27.035Z,14.50
2023-04-23T01:25:29.691Z,14.69
2023-04-23T01:27:35.824Z,14.68
2023-04-23T01:29:39.437Z,14.52
2023-04-23T01:31:42.977Z,14.55
2023-04-23T01:33:46.696Z,14.64
2023-04-23T01:35:51.205Z,14.60
2023-04-23T01:37:56.112Z,14.51
2023-04-23T01:40:00.989Z,14.50
2023-04-23T01:42:04.008Z,14.39
2023-04-23T01:44:07.006Z,14.29
2023-04-23T01:46:10.427Z,14.34
2023-04-23T01:48:13.234Z,14.25
2023-04-23T01:50:16.136Z,14.28
2023-04-23T01:52:18.804Z,14.19
2023-04-23T01:54:21.398Z,14.18
2023-04-23T01:56:27.991Z,14.15
2023-04-23T01:58:30.556Z,14.10
2023-04-23T02:00:33.124Z,14.10
2023-04-23T02:02:36.263Z,14.12
2023-04-23T02:04:39.997Z,13.99
2023-04-23T02:06:44.970Z,14.06
2023-04-23T02:08:47.486Z,13.93
2023-04-23T02:10:50.107Z,13.92
2023-04-23T02:12:53.996Z,13.95
2023-04-23T02:14:56.558Z,13.89
2023-04-23T02:16:59.099Z,14.13
2023-04-23T02:19:01.838Z,13.93
2023-04-23T02:21:04.643Z,13.87
2023-04-23T02:23:07.410Z,13.92
2023-04-23T02:25:11.038Z,13.85
2023-04-23T02:27:13.607Z,13.82
2023-04-23T02:29:17.538Z,13.82
2023-04-23T02:31:20.689Z,13.77
2023-04-23T02:33:23.423Z,13.76
2023-04-23T02:35:26.816Z,13.73
2023-04-23T02:37:29.362Z,13.68
2023-04-23T02:39:32.308Z,13.71
2023-04-23T02:41:34.848Z,13.82
2023-04-23T02:43:37.366Z,13.74
2023-04-23T02:45:41.257Z,13.66
2023-04-23T02:47:43.776Z,13.63
2023-04-23T02:49:46.380Z,13.61
2023-04-23T02:51:48.917Z,13.56
2023-04-23T02:53:51.510Z,13.63
2023-04-23T02:55:54.022Z,13.54
2023-04-23T02:57:56.645Z,13.52
2023-04-23T02:59:59.166Z,13.50
2023-04-23T03:02:03.511Z,13.49
2023-04-23T03:04:06.251Z,13.46
2023-04-23T03:06:09.457Z,13.55
2023-04-23T03:08:11.981Z,13.55
2023-04-23T03:10:14.571Z,13.47
2023-04-23T03:12:18.214Z,13.43
2023-04-23T03:14:20.760Z,13.41
2023-04-23T03:16:23.438Z,13.42
2023-04-23T03:18:27.407Z,13.56
2023-04-23T03:20:29.944Z,13.54
2023-04-23T03:22:32.463Z,13.44
2023-04-23T03:24:35.838Z,13.39
2023-04-23T03:26:38.376Z,13.38
2023-04-23T03:28:40.915Z,13.39
2023-04-23T03:30:43.674Z,13.36
2023-04-23T03:32:46.330Z,13.38
2023-04-23T03:34:50.545Z,13.38
2023-04-23T03:36:53.097Z,13.39
2023-04-23T03:38:55.630Z,13.38
2023-04-23T03:40:58.266Z,13.39
2023-04-23T03:43:00.932Z,13.40
2023-04-23T03:45:03.466Z,13.43
2023-04-23T03:47:06.051Z,13.47
2023-04-23T03:49:08.630Z,13.41
2023-04-23T03:51:12.506Z,13.35
2023-04-23T03:53:15.073Z,13.32
2023-04-23T03:55:17.636Z,13.31
2023-04-23T03:57:21.815Z,13.30
2023-04-23T03:59:24.493Z,13.28
2023-04-23T04:01:27.049Z,13.33
2023-04-23T04:03:29.874Z,13.31
2023-04-23T04:05:32.605Z,13.48
2023-04-23T04:07:37.114Z,13.54
2023-04-23T04:09:40.296Z,13.49
2023-04-23T04:11:42.811Z,13.36
2023-04-23T04:13:45.349Z,13.23
2023-04-23T04:15:47.917Z,13.18
2023-04-23T04:17:50.527Z,13.15
2023-04-23T04:19:53.120Z,13.12
2023-04-23T04:21:56.117Z,13.12
2023-04-23T04:24:01.580Z,13.13
2023-04-23T04:26:04.816Z,13.20
2023-04-23T04:28:09.274Z,13.24
2023-04-23T04:30:12.612Z,13.17
2023-04-23T04:32:15.154Z,13.12
2023-04-23T04:34:17.832Z,13.09
2023-04-23T04:36:20.357Z,13.11
2023-04-23T04:38:23.117Z,13.17
2023-04-23T04:40:28.530Z,13.15
2023-04-23T04:42:31.431Z,13.20
2023-04-23T04:44:34.004Z,13.13
2023-04-23T04:46:40.392Z,13.14
2023-04-23T04:48:42.956Z,13.09
2023-04-23T04:50:46.460Z,13.15
2023-04-23T04:52:49.002Z,13.09
2023-04-23T04:54:51.564Z,13.07
2023-04-23T04:56:55.447Z,13.07
2023-04-23T04:58:58.052Z,13.04
2023-04-23T05:01:01.344Z,12.98
2023-04-23T05:03:04.746Z,13.00
2023-04-23T05:05:08.782Z,12.99
2023-04-23T05:07:11.330Z,12.96
2023-04-23T05:09:15.790Z,12.95
2023-04-23T05:11:19.834Z,12.92
2023-04-23T05:13:23.753Z,12.90
2023-04-23T05:15:26.297Z,12.87
2023-04-23T05:17:29.195Z,13.02
2023-04-23T05:19:32.303Z,13.02
2023-04-23T05:21:35.205Z,13.01
2023-04-23T05:23:37.841Z,12.89
2023-04-23T05:25:41.110Z,12.90
2023-04-23T05:27:43.651Z,12.94
2023-04-23T05:29:47.560Z,12.91
2023-04-23T05:31:50.341Z,12.90
2023-04-23T05:33:53.715Z,12.90
2023-04-23T05:35:57.258Z,12.85
2023-04-23T05:37:59.835Z,12.82
2023-04-23T05:40:04.832Z,12.79
2023-04-23T05:42:07.577Z,12.79
2023-04-23T05:44:10.133Z,12.82
2023-04-23T05:46:14.064Z,12.95
2023-04-23T05:48:16.624Z,12.88
2023-04-23T05:50:19.345Z,12.87
2023-04-23T05:52:21.918Z,12.84
2023-04-23T05:54:24.450Z,12.85
2023-04-23T05:56:27.034Z,12.91
2023-04-23T05:58:29.583Z,12.99
2023-04-23T06:00:32.429Z,12.92
2023-04-23T06:02:36.456Z,12.97
2023-04-23T06:04:39.338Z,12.93
2023-04-23T06:06:43.599Z,12.88
2023-04-23T06:08:46.176Z,12.87
2023-04-23T06:10:48.834Z,12.87
2023-04-23T06:12:51.371Z,12.84
2023-04-23T06:14:54.195Z,12.85
2023-04-23T06:16:56.730Z,12.86
2023-04-23T06:19:00.612Z,13.01
2023-04-23T06:21:04.305Z,12.91
2023-04-23T06:23:07.324Z,13.02
2023-04-23T06:25:10.679Z,13.01
2023-04-23T06:27:14.076Z,13.06
2023-04-23T06:29:16.724Z,13.08
2023-04-23T06:31:19.419Z,13.10
2023-04-23T06:33:21.985Z,13.21
2023-04-23T06:35:25.891Z,13.23
2023-04-23T06:37:30.629Z,13.22
2023-04-23T06:39:33.147Z,13.27
2023-04-23T06:41:35.706Z,13.43
2023-04-23T06:43:38.218Z,13.34
2023-04-23T06:45:40.793Z,13.40
2023-04-23T06:47:43.432Z,13.42
2023-04-23T06:49:45.991Z,13.40
2023-04-23T06:51:49.879Z,13.40
2023-04-23T06:53:52.404Z,13.41
2023-04-23T06:55:54.906Z,13.44
2023-04-23T06:57:57.652Z,13.53
2023-04-23T07:00:00.285Z,13.68
2023-04-23T07:02:02.809Z,13.77
2023-04-23T07:04:05.455Z,13.65
2023-04-23T07:06:08.302Z,13.74
2023-04-23T07:08:13.387Z,13.79
2023-04-23T07:10:17.963Z,13.66
2023-04-23T07:12:20.843Z,13.63
2023-04-23T07:14:23.458Z,13.71
2023-04-23T07:16:26.003Z,13.84
2023-04-23T07:18:28.569Z,13.69
2023-04-23T07:20:31.139Z,13.63
2023-04-23T07:22:33.920Z,13.63
2023-04-23T07:24:37.841Z,13.62
2023-04-23T07:26:41.030Z,13.74
2023-04-23T07:28:43.604Z,13.76
2023-04-23T07:30:46.262Z,13.77
2023-04-23T07:32:48.956Z,13.77
2023-04-23T07:34:51.556Z,13.75
2023-04-23T07:36:54.136Z,13.90
2023-04-23T07:38:56.659Z,13.87
2023-04-23T07:41:00.534Z,13.93
2023-04-23T07:43:03.091Z,13.94
2023-04-23T07:45:06.680Z,14.22
2023-04-23T07:47:09.209Z,14.06
2023-04-23T07:49:11.784Z,14.00
2023-04-23T07:51:14.310Z,13.99
2023-04-23T07:53:16.861Z,13.99
2023-04-23T07:55:20.344Z,13.99
2023-04-23T07:57:24.233Z,14.14
2023-04-23T07:59:26.767Z,14.28
2023-04-23T08:01:29.690Z,14.21
2023-04-23T08:03:32.400Z,14.11
2023-04-23T08:05:37.254Z,14.29
2023-04-23T08:07:39.846Z,14.17
2023-04-23T08:09:43.292Z,14.31
2023-04-23T08:11:46.146Z,14.52
2023-04-23T08:13:50.235Z,14.81
2023-04-23T08:15:52.932Z,14.48
2023-04-23T08:17:55.609Z,14.56
2023-04-23T08:19:58.322Z,14.70
2023-04-23T08:22:00.939Z,14.52
2023-04-23T08:24:04.289Z,14.56
2023-04-23T08:26:07.316Z,14.60
2023-04-23T08:28:09.896Z,14.48
2023-04-23T08:30:14.393Z,14.48
2023-04-23T08:32:17.033Z,14.64
2023-04-23T08:34:21.978Z,14.62
2023-04-23T08:36:24.621Z,14.79
2023-04-23T08:38:27.219Z,14.73
2023-04-23T08:40:33.046Z,14.86
2023-04-23T08:42:41.307Z,14.83
2023-04-23T08:44:44.007Z,14.82
2023-04-23T08:46:47.991Z,14.70
2023-04-23T08:48:53.859Z,14.72
2023-04-23T08:50:58.156Z,14.66
2023-04-23T08:53:01.062Z,14.67
2023-04-23T08:55:10.569Z,14.63
2023-04-23T08:57:14.903Z,14.59
2023-04-23T08:59:18.229Z,14.57
2023-04-23T09:01:20.995Z,14.58
2023-04-23T09:03:26.429Z,14.77
2023-04-23T09:05:29.156Z,14.67
2023-04-23T09:07:31.696Z,14.65
2023-04-23T09:09:35.736Z,14.78
2023-04-23T09:11:38.368Z,14.85
2023-04-23T09:13:41.844Z,14.85
2023-04-23T09:15:44.576Z,14.80
2023-04-23T09:17:48.496Z,14.78
2023-04-23T09:19:55.252Z,14.85
2023-04-23T09:22:02.117Z,14.99
2023-04-23T09:24:06.262Z,15.07
2023-04-23T09:26:09.434Z,15.14
2023-04-23T09:28:12.148Z,15.20
2023-04-23T09:30:15.518Z,15.31
2023-04-23T09:32:18.205Z,15.30
2023-04-23T09:34:22.457Z,15.35
2023-04-23T09:36:28.284Z,15.51
2023-04-23T09:38:31.687Z,15.71
2023-04-23T09:40:34.780Z,15.78
2023-04-23T09:42:38.204Z,15.78
2023-04-23T09:44:40.737Z,15.63
2023-04-23T09:46:44.779Z,15.69
2023-04-23T09:48:48.809Z,15.68
2023-04-23T09:50:51.389Z,15.67
2023-04-23T09:52:57.046Z,15.63
2023-04-23T09:54:59.901Z,15.88
2023-04-23T09:57:04.087Z,15.90
2023-04-23T09:59:23.010Z,15.87
2023-04-23T10:01:31.840Z,16.06
2023-04-23T10:03:34.519Z,15.90
2023-04-23T10:05:56.296Z,15.82
2023-04-23T10:08:04.160Z,15.76
2023-04-23T10:10:08.377Z,15.81
2023-04-23T10:14:18.128Z,15.82
2023-04-23T10:16:25.435Z,16.00
2023-04-23T10:18:33.833Z,16.05
2023-04-23T10:20:37.852Z,16.19
2023-04-23T10:22:45.139Z,16.35
2023-04-23T10:24:55.822Z,16.35
2023-04-23T10:27:02.106Z,16.42
2023-04-23T10:29:09.304Z,16.42
2023-04-23T10:31:11.958Z,16.44
2023-04-23T10:33:29.045Z,16.37
2023-04-23T10:35:34.930Z,16.38
2023-04-23T10:37:39.089Z,16.35
2023-04-23T10:39:45.104Z,16.43
2023-04-23T10:41:49.513Z,16.43
2023-04-23T10:43:53.981Z,16.50
2023-04-23T10:45:56.532Z,16.72
2023-04-23T10:47:59.588Z,16.79
2023-04-23T10:50:19.541Z,16.91
2023-04-23T10:52:25.238Z,16.84
2023-04-23T10:54:32.422Z,16.85
2023-04-23T10:56:35.109Z,16.89
2023-04-23T10:58:51.715Z,17.13
2023-04-23T11:00:54.395Z,17.13
2023-04-23T11:02:57.448Z,17.04
2023-04-23T11:05:01.820Z,17.13
2023-04-23T11:07:09.291Z,17.05
2023-04-23T11:09:32.283Z,17.05
2023-04-23T11:11:41.286Z,17.36
2023-04-23T11:13:54.707Z,17.27
2023-04-23T11:16:19.284Z,17.22
2023-04-23T11:18:24.853Z,17.20
2023-04-23T11:20:27.437Z,17.44
2023-04-23T11:22:35.607Z,17.43
2023-04-23T11:24:42.067Z,17.47
2023-04-23T11:26:45.387Z,17.42
2023-04-23T11:28:50.265Z,17.35
2023-04-23T11:30:54.708Z,17.36
2023-04-23T11:33:00.026Z,17.22
2023-04-23T11:35:05.150Z,17.26
2023-04-23T11:37:11.310Z,17.28
2023-04-23T11:39:13.858Z,17.26
2023-04-23T11:41:17.407Z,17.34
2023-04-23T11:43:21.319Z,17.65
2023-04-23T11:45:25.394Z,17.69
2023-04-23T11:47:29.360Z,17.74
2023-04-23T11:49:32.002Z,17.54
2023-04-23T11:51:34.595Z,17.65
2023-04-23T11:53:37.164Z,17.53
2023-04-23T11:55:43.889Z,17.53
2023-04-23T11:57:48.012Z,17.51
2023-04-23T11:59:50.535Z,17.44
2023-04-23T12:01:55.854Z,17.41
2023-04-23T12:03:59.888Z,17.43
2023-04-23T12:06:02.668Z,17.40
2023-04-23T12:08:10.003Z,17.60
2023-04-23T12:10:18.595Z,17.48
2023-04-23T12:12:21.618Z,17.47
2023-04-23T12:14:29.835Z,17.59
2023-04-23T12:16:37.478Z,17.89
2023-04-23T12:18:42.426Z,17.90
2023-04-23T12:20:46.973Z,18.11
2023-04-23T12:22:49.796Z,18.34
2023-04-23T12:24:54.330Z,18.19
2023-04-23T12:27:00.677Z,18.13
2023-04-23T12:29:03.479Z,18.19
2023-04-23T12:31:06.124Z,18.16
2023-04-23T12:33:12.462Z,18.22
2023-04-23T12:35:15.025Z,18.22
2023-04-23T12:37:18.891Z,18.32
2023-04-23T12:39:23.444Z,18.40
2023-04-23T12:41:25.973Z,18.29
2023-04-23T12:43:28.861Z,18.32
2023-04-23T12:45:38.233Z,18.46
2023-04-23T12:47:40.803Z,18.34
2023-04-23T12:49:43.908Z,18.35
2023-04-23T12:51:46.763Z,18.21
2023-04-23T12:53:51.200Z,18.11
2023-04-23T12:55:53.724Z,18.30
2023-04-23T12:57:56.367Z,18.33
2023-04-23T12:59:58.899Z,18.54
2023-04-23T13:02:03.500Z,18.77
2023-04-23T13:04:06.531Z,18.94
2023-04-23T13:06:09.212Z,18.97
2023-04-23T13:08:11.756Z,18.92
2023-04-23T13:10:15.760Z,18.89
2023-04-23T13:12:18.305Z,18.83
2023-04-23T13:14:21.152Z,18.84
2023-04-23T13:16:23.737Z,18.79
2023-04-23T13:18:26.390Z,18.91
2023-04-23T13:20:28.954Z,19.17
2023-04-23T13:22:32.039Z,19.43
2023-04-23T13:24:34.600Z,19.71
2023-04-23T13:26:38.608Z,19.79
2023-04-23T13:28:41.278Z,19.79
2023-04-23T13:30:43.820Z,19.68
2023-04-23T13:32:46.444Z,19.78
2023-04-23T13:34:49.056Z,19.84
2023-04-23T13:36:51.671Z,20.09
2023-04-23T13:38:54.234Z,20.11
2023-04-23T13:40:59.323Z,20.01
2023-04-23T13:43:03.209Z,20.14
2023-04-23T13:45:07.209Z,20.36
2023-04-23T13:47:09.873Z,20.52
2023-04-23T13:49:12.394Z,20.73
2023-04-23T13:51:33.167Z,21.04
2023-04-23T13:53:37.068Z,21.29
2023-04-23T13:55:39.969Z,21.48
2023-04-23T13:57:42.591Z,21.47
2023-04-23T13:59:46.492Z,22.01
2023-04-23T14:01:50.320Z,22.14
2023-04-23T14:03:52.997Z,22.26
2023-04-23T14:05:55.524Z,22.10
2023-04-23T14:07:58.044Z,22.45
2023-04-23T14:10:00.724Z,22.43
2023-04-23T14:12:03.630Z,22.50
2023-04-23T14:14:07.348Z,22.96
2023-04-23T14:16:11.396Z,23.35
2023-04-23T14:18:13.960Z,23.29
2023-04-23T14:20:17.522Z,23.28
2023-04-23T14:22:20.054Z,23.29
2023-04-23T14:24:24.630Z,23.39
2023-04-23T14:26:47.471Z,23.29
2023-04-23T14:28:52.948Z,22.99
2023-04-23T14:30:57.628Z,22.66
2023-04-23T14:33:01.544Z,22.40
2023-04-23T14:35:04.412Z,22.39
2023-04-23T14:37:07.129Z,22.11
2023-04-23T14:39:09.697Z,22.10
2023-04-23T14:41:12.568Z,22.34
2023-04-23T14:43:16.266Z,22.29
2023-04-23T14:45:19.204Z,21.92
2023-04-23T14:47:21.805Z,21.85
2023-04-23T14:49:26.315Z,21.77
2023-04-23T14:51:29.287Z,21.66
2023-04-23T14:53:32.075Z,21.50
2023-04-23T14:55:35.556Z,21.43
2023-04-23T14:57:38.144Z,21.35
2023-04-23T14:59:41.772Z,21.29
2023-04-23T15:01:48.011Z,21.17
2023-04-23T15:03:53.575Z,21.25
2023-04-23T15:05:57.657Z,21.04
2023-04-23T15:08:00.163Z,20.90
2023-04-23T15:10:06.345Z,20.89
2023-04-23T15:12:43.140Z,20.72
2023-04-23T15:14:46.191Z,20.55
2023-04-23T15:16:49.757Z,20.41
2023-04-23T15:18:52.655Z,20.30
2023-04-23T15:20:55.265Z,20.18
2023-04-23T15:22:59.134Z,20.12
2023-04-23T15:25:01.704Z,20.06
2023-04-23T15:27:04.539Z,20.09
2023-04-23T15:29:08.774Z,20.13
2023-04-23T15:31:12.046Z,20.18
2023-04-23T15:33:14.619Z,20.21
2023-04-23T15:35:17.417Z,20.05
2023-04-23T15:37:21.066Z,20.02
2023-04-23T15:39:24.989Z,19.95
2023-04-23T15:41:27.547Z,19.85
2023-04-23T15:43:30.084Z,19.87
2023-04-23T15:45:32.656Z,19.79
2023-04-23T15:47:35.307Z,19.78
2023-04-23T15:49:41.849Z,19.65
2023-04-23T15:51:44.826Z,19.55
2023-04-23T15:53:47.435Z,19.44
2023-04-23T15:55:52.194Z,19.34
2023-04-23T15:57:54.764Z,19.27
2023-04-23T15:59:57.304Z,19.15
2023-04-23T16:01:59.899Z,19.10
2023-04-23T16:04:10.469Z,19.03
2023-04-23T16:06:14.448Z,18.91
2023-04-23T16:08:19.683Z,19.02
2023-04-23T16:10:22.301Z,19.12
2023-04-23T16:12:26.211Z,19.19
2023-04-23T16:14:28.831Z,18.94
2023-04-23T16:16:31.694Z,18.41
2023-04-23T16:18:34.515Z,17.91
2023-04-23T16:20:37.060Z,17.43
2023-04-23T16:22:39.676Z,17.10
2023-04-23T16:24:42.239Z,16.70
2023-04-23T16:26:44.791Z,16.43
2023-04-23T16:28:52.335Z,16.34
2023-04-23T16:31:03.715Z,16.46
2023-04-23T16:33:06.660Z,16.27
2023-04-23T16:35:10.028Z,16.24
2023-04-23T16:37:15.685Z,16.21
2023-04-23T16:39:18.239Z,16.25
2023-04-23T16:41:21.397Z,16.15
2023-04-23T16:43:23.930Z,16.10
2023-04-23T16:45:27.803Z,16.19
2023-04-23T16:47:30.319Z,16.15
2023-04-23T16:49:33.045Z,16.17
2023-04-23T16:51:35.617Z,16.16
2023-04-23T16:53:41.130Z,16.15
2023-04-23T16:55:43.838Z,16.14
2023-04-23T16:57:46.399Z,16.16
2023-04-23T16:59:49.048Z,16.16
2023-04-23T17:01:53.034Z,16.20
2023-04-23T17:03:55.999Z,16.26
2023-04-23T17:06:08.428Z,16.16
2023-04-23T17:08:11.187Z,16.29
2023-04-23T17:10:15.380Z,16.12
2023-04-23T17:12:17.975Z,16.11
2023-04-23T17:14:20.739Z,16.14
2023-04-23T17:16:25.207Z,16.06
2023-04-23T17:18:29.258Z,16.07
2023-04-23T17:20:35.096Z,16.09
2023-04-23T17:22:37.794Z,16.16
2023-04-23T17:24:40.766Z,16.09
2023-04-23T17:26:43.654Z,15.95
2023-04-23T17:28:46.216Z,15.92
2023-04-23T17:30:50.319Z,15.95
2023-04-23T17:32:52.944Z,15.87
2023-04-23T17:35:08.864Z,15.86
2023-04-23T17:37:12.964Z,15.84
2023-04-23T17:39:19.732Z,15.85
2023-04-23T17:41:22.831Z,15.87
2023-04-23T17:43:25.833Z,15.87
2023-04-23T17:45:28.455Z,15.86
2023-04-23T17:47:31.254Z,15.86
2023-04-23T17:49:33.797Z,15.87
2023-04-23T17:51:37.749Z,15.93
2023-04-23T17:53:42.040Z,15.94
2023-04-23T17:55:44.603Z,15.90
2023-04-23T17:57:47.131Z,15.91
2023-04-23T17:59:49.651Z,15.88
2023-04-23T18:01:52.249Z,15.87
2023-04-23T18:03:55.058Z,15.92
2023-04-23T18:05:57.834Z,15.84
2023-04-23T18:08:01.847Z,15.82
2023-04-23T18:10:06.457Z,15.80
2023-04-23T18:12:09.022Z,15.73
2023-04-23T18:14:12.826Z,15.69
2023-04-23T18:16:15.521Z,15.66
2023-04-23T18:18:20.776Z,15.66
2023-04-23T18:20:24.933Z,15.66
2023-04-23T18:22:27.841Z,15.66
2023-04-23T18:24:31.760Z,15.65
2023-04-23T18:26:34.282Z,15.58
2023-04-23T18:28:37.156Z,15.55
2023-04-23T18:30:39.854Z,15.52
2023-04-23T18:32:48.060Z,15.53
2023-04-23T18:34:50.763Z,15.56
2023-04-23T18:36:56.464Z,15.48
2023-04-23T18:38:59.536Z,15.44
2023-04-23T18:41:04.574Z,15.41
2023-04-23T18:43:07.163Z,15.44
2023-04-23T18:45:10.698Z,15.34
2023-04-23T18:47:13.331Z,15.31
2023-04-23T18:49:46.288Z,15.24
2023-04-23T18:51:52.019Z,15.23
2023-04-23T18:53:54.554Z,15.22
2023-04-23T18:55:57.159Z,15.14
2023-04-23T18:58:02.416Z,15.09
2023-04-23T19:00:07.332Z,15.05
2023-04-23T19:02:11.834Z,15.05
2023-04-23T19:04:17.279Z,14.99
2023-04-23T19:06:20.022Z,14.96
2023-04-23T19:08:28.235Z,14.87
2023-04-23T19:10:30.823Z,14.86
2023-04-23T19:12:33.359Z,14.84
2023-04-23T19:14:37.569Z,15.00
2023-04-23T19:16:40.401Z,14.95
2023-04-23T19:18:43.102Z,15.08
2023-04-23T19:20:45.718Z,15.35
2023-04-23T19:22:50.495Z,15.33
2023-04-23T19:24:53.188Z,15.26
2023-04-23T19:26:56.326Z,15.18
2023-04-23T19:28:58.865Z,15.17
2023-04-23T19:31:04.018Z,15.01
2023-04-23T19:33:06.881Z,14.95
2023-04-23T19:35:09.623Z,14.91
2023-04-23T19:37:12.419Z,14.95
2023-04-23T19:39:14.968Z,15.01
2023-04-23T19:41:17.500Z,14.88
2023-04-23T19:43:20.183Z,14.91
2023-04-23T19:45:22.733Z,14.66
2023-04-23T19:47:26.632Z,14.64
2023-04-23T19:49:29.241Z,14.64
2023-04-23T19:51:35.392Z,14.74
2023-04-23T19:53:37.978Z,14.53
2023-04-23T19:55:40.584Z,14.50
2023-04-23T19:57:43.152Z,14.47
2023-04-23T19:59:45.881Z,14.61
2023-04-23T20:01:48.486Z,14.61
2023-04-23T20:03:53.585Z,14.59
2023-04-23T20:05:58.316Z,14.40
2023-04-23T20:08:04.105Z,14.46
2023-04-23T20:10:07.810Z,14.45
2023-04-23T20:12:10.427Z,14.46
2023-04-23T20:14:13.772Z,14.48
2023-04-23T20:16:16.480Z,14.38
2023-04-23T20:18:19.532Z,14.53
2023-04-23T20:20:25.470Z,14.47
2023-04-23T20:22:28.221Z,14.35
2023-04-23T20:24:31.000Z,14.35
2023-04-23T20:26:33.647Z,14.38
2023-04-23T20:28:37.036Z,14.28
2023-04-23T20:30:39.566Z,14.26
2023-04-23T20:32:42.573Z,14.28
2023-04-23T20:34:45.312Z,14.36
2023-04-23T20:36:51.022Z,14.37
2023-04-23T20:38:54.213Z,14.35
2023-04-23T20:40:57.078Z,14.50
2023-04-23T20:42:59.863Z,14.36
2023-04-23T20:45:02.405Z,14.28
2023-04-23T20:47:05.609Z,14.41
2023-04-23T20:49:08.776Z,14.36
2023-04-23T20:51:11.290Z,14.31
2023-04-23T20:53:15.388Z,14.24
2023-04-23T20:55:18.037Z,14.23
2023-04-23T20:57:20.966Z,14.32
2023-04-23T20:59:23.549Z,14.26
2023-04-23T21:01:26.564Z,14.32
2023-04-23T21:03:32.688Z,14.22
2023-04-23T21:05:35.450Z,14.26
2023-04-23T21:07:37.981Z,14.29
2023-04-23T21:09:42.225Z,14.23
2023-04-23T21:11:44.929Z,14.22
2023-04-23T21:13:47.912Z,14.25
2023-04-23T21:15:51.834Z,14.38
2023-04-23T21:17:54.403Z,14.26
2023-04-23T21:19:59.296Z,14.16
2023-04-23T21:22:01.856Z,14.17
2023-04-23T21:24:04.714Z,14.15
2023-04-23T21:26:08.664Z,14.15
2023-04-23T21:28:11.321Z,14.28
2023-04-23T21:30:22.036Z,14.29
2023-04-23T21:32:24.597Z,14.19
2023-04-23T21:34:27.424Z,14.15
2023-04-23T21:36:29.996Z,14.25
2023-04-23T21:38:33.257Z,14.21
2023-04-23T21:40:37.146Z,14.18
2023-04-23T21:42:41.079Z,14.09
2023-04-23T21:44:43.660Z,14.05
2023-04-23T21:46:46.749Z,14.11
2023-04-23T21:48:50.207Z,14.10
2023-04-23T21:50:53.623Z,14.04
2023-04-23T21:52:58.267Z,14.11
2023-04-23T21:55:01.146Z,14.00
2023-04-23T21:57:03.834Z,14.06
2023-04-23T21:59:07.710Z,14.15
2023-04-23T22:01:10.355Z,14.05
2023-04-23T22:03:17.835Z,14.09
2023-04-23T22:05:28.458Z,14.06
2023-04-23T22:07:32.251Z,14.23
2023-04-23T22:09:34.808Z,14.30
2023-04-23T22:11:37.370Z,14.33
2023-04-23T22:13:40.009Z,14.18
2023-04-23T22:15:44.266Z,14.15
2023-04-23T22:17:50.317Z,14.19
2023-04-23T22:19:53.161Z,14.14
2023-04-23T22:21:55.899Z,14.15
2023-04-23T22:23:58.420Z,14.25
2023-04-23T22:26:01.023Z,14.22
2023-04-23T22:28:03.683Z,14.22
2023-04-23T22:30:08.589Z,14.11
2023-04-23T22:32:12.539Z,14.12
2023-04-23T22:34:15.118Z,14.03
2023-04-23T22:36:17.898Z,14.18
2023-04-23T22:38:21.020Z,14.12
2023-04-23T22:40:23.687Z,14.29
2023-04-23T22:42:26.255Z,14.17
2023-04-23T22:44:28.770Z,14.26
2023-04-23T22:46:31.851Z,14.12
2023-04-23T22:48:37.676Z,14.14
2023-04-23T22:50:42.626Z,14.17
2023-04-23T22:52:45.328Z,14.25
2023-04-23T22:54:48.434Z,14.12
2023-04-23T22:56:51.158Z,14.00
2023-04-23T22:58:53.794Z,14.16
2023-04-23T23:00:56.435Z,14.03
2023-04-23T23:02:59.069Z,13.97
2023-04-23T23:05:03.157Z,13.94
2023-04-23T23:07:05.873Z,14.06
2023-04-23T23:09:08.435Z,13.93
2023-04-23T23:11:11.004Z,13.96
2023-04-23T23:13:13.565Z,13.87
2023-04-23T23:15:16.110Z,14.05
2023-04-23T23:17:18.661Z,14.07
2023-04-23T23:19:21.264Z,13.90
2023-04-23T23:21:25.421Z,13.89
2023-04-23T23:23:27.986Z,13.84
2023-04-23T23:25:30.621Z,13.87
2023-04-23T23:27:33.184Z,14.04
2023-04-23T23:29:35.834Z,14.02
2023-04-23T23:31:38.505Z,13.86
2023-04-23T23:33:41.235Z,13.89
2023-04-23T23:35:43.925Z,13.84
2023-04-23T23:37:47.813Z,13.87
2023-04-23T23:39:50.365Z,13.95
2023-04-23T23:41:52.950Z,14.05
2023-04-23T23:43:55.680Z,13.90
2023-04-23T23:45:58.286Z,14.13
2023-04-23T23:48:00.980Z,13.91
2023-04-23T23:50:03.627Z,13.93
2023-04-23T23:52:06.202Z,14.10
2023-04-23T23:54:10.075Z,13.98
2023-04-23T23:56:12.596Z,13.88
2023-04-23T23:58:15.228Z,13.81
